To NAV CANADA Home Page Login to a new session Search on AWWS site Feedback and Comments Disclaimer Vers la page française équivalente Tips FAQ What's new on the site To the Forecasts and Observations / NOTAM section To "File a Flight Plan" website Publications and other links Update of the User's profile FIC Telephone Numbers My Weather Data Folder Route Weather Data Regional Weather Data Local Weather Data To the Forecasts and Observations / NOTAM section
Request Generated 07/30/2016 at 20:43:19 UTC . Weather information available at that time is displayed.

METAR/TAF

PRINCE ALBERT (GLASS FIELD)/SK    

METAR CYPA 302000Z 19009G15KT 15SM FEW048CB BKN280 29/17 A2972 RMK
CB2CI5 CB NW+E MOVG NE SLP068 DENSITY ALT 3500FT=
METAR CYPA 301900Z 20010KT 180V250 15SM FEW051TCU BKN280 28/16 A2974
RMK TCU2CI3 SLP074 DENSITY ALT 3300FT=
METAR CYPA 301800Z 20008KT 15SM FEW040 FEW075 SCT250 27/17 A2975 RMK
CU1ACC1CI2 ACC TR SLP079 DENSITY ALT 3300FT=

TAF CYPA 301839Z 3019/3107 20008KT P6SM FEW040 SCT080 SCT250
FM302000 18008KT P6SM SCT060 PROB30 3020/3102 VRB15G25KT 3SM TSRA
BKN050CB
FM310200 06008KT P6SM SCT060 BKN100
FM310600 10008KT P6SM VCSH BKN090 PROB30 3106/3107 VRB15G25KT 5SM
TSRA BKN080CB
RMK NXT FCST BY 310100Z=
Your time UTC time
Weather data provided by Environment Canada and NAV CANADA